Startpagina
METAR-TAF:

METAR-TAF

Vliegvelden :

Fritzlar, Duitsland

breedte: 51-07N, lengte: 009-17E, hoogte: 172 m

Actueel weer

Dit bericht is 1 uur en het 10 minuten geleden gemaakt, om 01:20 UTC
Wind 4 kt uit het noordwesten
Temperatuur 19°C
Vochtigheid 83%
Druk 1019 hPa
Zicht 10 km of meer

METAR: ETHF 260120Z 32004KT 9999 19/16 Q1019 BLU+

Tijdstip: 04:30 (02:30 UTC)

Verwachting

Dit bericht is 12 uur en het 35 minuten geleden gemaakt, om 13:55 UTC
Verwachting geldig van 25 om 11 UTC tot 25 om 20 UTC
Wind 5 kt uit het oostzuidoosten
Zicht: 1420 m
Verspreide wolken op 5500 ft

TAF: ETHF 251355Z 2511/2520 11005KT 9999 NSW SCT055 CANCEL 1420

Waarnemingen en weersverwachtingen van meer dan 4000 vliegvelden (METAR en TAF).

De beschikbare stations zijn de gele en rode punten op de kaart.

Ga met uw muis naar het station om de naam te zien.

Klik dan om waarnemingen en weersverwachtingen te zien.

kaart wijzigen: klik op de groene knoppen met een zwart kruis om in te zoomen, op de groene knop met een streepje om uit te zoomen of op de groene pijlen voor aangrenzende kaarten.


METAR-TAF: